Terminal Aerodrome Forecast
Issued by NWS Wilmington, NC

Home | Current Version | Previous Version | Text Only | Print | Product List | Glossary On
Versions: 1 2 3 4 5 6 7 8 9 10 11 12 13 14 15 16 17
000
FTUS42 KILM 281730
TAFMYR
TAF
KMYR 281730Z 2818/2918 21015KT P6SM VCTS SCT040CB BKN100
     FM290100 22004KT P6SM SCT050
     FM290900 30004KT P6SM FEW250
     FM291300 35006KT P6SM FEW050=

USA.gov is the U.S. government's official web portal to all federal, state and local government web resources and services.